KGUP/GUP METAR and TAF weather

Enter ICAO airport designator
Station Type Date Time Source
KGUP METAR 2020/02/22 06:53 UTC NOAA

KGUP 220653Z AUTO 08005KT 10SM FEW075 03/M03 A3027 RMK AO2 SLP209 T00281028 401561011


Station Type Date Time Source
KGUP Decoded METAR 2020/02/22 06:53 UTC NOAA

GALLUP MUNICIPAL AIRPORT, NM, United States (KGUP) 35-31N 108-47W 1971M
Feb 22, 2020 - 01:53 AM EST / 2020.02.22 0653 UTC
Wind: from the E (080 degrees) at 6 MPH (5 KT):0
Visibility: 10 mile(s):0
Sky conditions: mostly clear
Temperature: 37.0 F (2.8 C)
Dew Point: 27.0 F (-2.8 C)
Relative Humidity: 66%
Pressure (altimeter): 30.27 in. Hg (1025 hPa)
ob: KGUP 220653Z AUTO 08005KT 10SM FEW075 03/M03 A3027 RMK AO2 SLP209 T00281028 401561011
cycle: 7

Station Type Date Time Source
KGUP TAF 2020/02/22 06:24 UTC NOAA

TAF KGUP 220522Z 2206/2306 VRB05KT P6SM BKN200
FM221400 VRB03KT P6SM OVC050
FM221600 VRB03KT P6SM VCSH OVC030
FM221800 VRB05KT 5SM -SHRA OVC020
FM230000 20011KT 5SM BR VCSH BKN015

Example: see airport list